createdAt,value
2023-04-16T00:04:34.543Z,7.36
2023-04-16T00:09:37.157Z,7.37
2023-04-16T00:14:39.642Z,7.37
2023-04-16T00:19:42.125Z,7.36
2023-04-16T00:24:45.164Z,7.35
2023-04-16T00:29:47.751Z,7.35
2023-04-16T00:34:50.264Z,7.34
2023-04-16T00:39:52.839Z,7.31
2023-04-16T00:44:55.414Z,7.28
2023-04-16T00:49:57.985Z,7.26
2023-04-16T00:55:00.976Z,7.23
2023-04-16T01:00:04.104Z,7.21
2023-04-16T01:05:06.818Z,7.18
2023-04-16T01:10:09.382Z,7.17
2023-04-16T01:15:11.932Z,7.16
2023-04-16T01:20:14.750Z,7.15
2023-04-16T01:25:17.693Z,7.15
2023-04-16T01:30:20.292Z,7.16
2023-04-16T01:35:22.806Z,7.18
2023-04-16T01:40:25.468Z,7.17
2023-04-16T01:45:28.027Z,7.17
2023-04-16T01:50:31.180Z,7.16
2023-04-16T01:55:34.342Z,7.15
2023-04-16T02:00:36.953Z,7.17
2023-04-16T02:05:39.995Z,7.20
2023-04-16T02:10:42.476Z,7.23
2023-04-16T02:15:49.797Z,7.26
2023-04-16T02:20:52.303Z,7.30
2023-04-16T02:25:55.106Z,7.31
2023-04-16T02:30:57.606Z,7.30
2023-04-16T02:36:00.318Z,7.28
2023-04-16T02:41:03.104Z,7.25
2023-04-16T02:46:05.851Z,7.25
2023-04-16T02:51:08.733Z,7.24
2023-04-16T02:56:12.140Z,7.18
2023-04-16T03:01:14.695Z,7.13
2023-04-16T03:06:17.265Z,7.11
2023-04-16T03:11:20.315Z,7.08
2023-04-16T03:16:23.160Z,7.03
2023-04-16T03:21:27.510Z,6.96
2023-04-16T03:26:30.257Z,6.90
2023-04-16T03:31:32.838Z,6.88
2023-04-16T03:36:35.377Z,6.85
2023-04-16T03:41:37.903Z,6.81
2023-04-16T03:46:40.457Z,6.76
2023-04-16T03:51:43.010Z,6.72
2023-04-16T03:56:45.560Z,6.67
2023-04-16T04:01:48.228Z,6.62
2023-04-16T04:06:50.861Z,6.59
2023-04-16T04:11:53.409Z,6.57
2023-04-16T04:16:55.953Z,6.58
2023-04-16T04:21:58.705Z,6.58
2023-04-16T04:27:02.077Z,6.61
2023-04-16T04:32:05.021Z,6.64
2023-04-16T04:37:07.628Z,6.67
2023-04-16T04:42:10.381Z,6.70
2023-04-16T04:47:13.683Z,6.72
2023-04-16T04:52:16.251Z,6.74
2023-04-16T04:57:18.847Z,6.78
2023-04-16T05:02:21.520Z,6.79
2023-04-16T05:07:24.219Z,6.79
2023-04-16T05:12:26.721Z,6.79
2023-04-16T05:17:29.600Z,6.82
2023-04-16T05:22:32.270Z,6.84
2023-04-16T05:27:34.909Z,6.83
2023-04-16T05:32:39.370Z,6.87
2023-04-16T05:37:42.101Z,6.94
2023-04-16T05:42:44.625Z,7.04
2023-04-16T05:47:47.667Z,7.08
2023-04-16T05:52:50.255Z,7.12
2023-04-16T05:57:52.774Z,7.18
2023-04-16T06:02:55.700Z,7.28
2023-04-16T06:07:58.426Z,7.49
2023-04-16T06:13:00.989Z,7.72
2023-04-16T06:18:03.602Z,7.79
2023-04-16T06:23:06.237Z,7.91
2023-04-16T06:28:08.785Z,8.43
2023-04-16T06:33:11.372Z,8.61
2023-04-16T06:38:14.518Z,8.64
2023-04-16T06:43:17.979Z,8.59
2023-04-16T06:48:20.636Z,8.61
2023-04-16T06:53:25.127Z,8.72
2023-04-16T06:58:27.861Z,8.71
2023-04-16T07:03:31.312Z,8.78
2023-04-16T07:08:33.923Z,9.06
2023-04-16T07:13:36.406Z,9.33
2023-04-16T07:18:39.041Z,9.38
2023-04-16T07:23:41.757Z,9.35
2023-04-16T07:28:44.382Z,9.43
2023-04-16T07:33:46.875Z,9.58
2023-04-16T07:38:49.372Z,9.70
2023-04-16T07:43:51.959Z,9.62
2023-04-16T07:48:54.434Z,9.56
2023-04-16T07:53:57.102Z,9.54
2023-04-16T07:59:14.912Z,9.52
2023-04-16T08:04:26.417Z,9.65
2023-04-16T08:09:29.492Z,9.80
2023-04-16T08:14:32.281Z,9.85
2023-04-16T08:19:34.829Z,9.77
2023-04-16T08:24:37.857Z,9.59
2023-04-16T08:29:40.412Z,9.53
2023-04-16T08:34:43.347Z,9.71
2023-04-16T08:39:46.114Z,9.78
2023-04-16T08:44:50.369Z,9.73
2023-04-16T08:49:58.402Z,9.59
2023-04-16T08:55:08.705Z,9.44
2023-04-16T09:00:13.356Z,9.46
2023-04-16T09:05:21.631Z,9.34
2023-04-16T09:10:26.388Z,9.18
2023-04-16T09:15:29.495Z,9.01
2023-04-16T09:20:32.000Z,8.85
2023-04-16T09:25:35.210Z,8.80
2023-04-16T09:30:38.043Z,8.89
2023-04-16T09:35:54.167Z,9.03
2023-04-16T09:41:13.442Z,9.09
2023-04-16T09:46:16.018Z,9.26
2023-04-16T09:51:18.607Z,9.50
2023-04-16T09:56:25.900Z,9.66
2023-04-16T10:01:30.926Z,9.79
2023-04-16T10:06:35.500Z,9.81
2023-04-16T10:11:39.356Z,9.95
2023-04-16T10:16:43.965Z,10.24
2023-04-16T10:21:47.413Z,10.33
2023-04-16T10:26:52.228Z,10.23
2023-04-16T10:31:56.772Z,10.20
2023-04-16T10:36:59.284Z,10.10
2023-04-16T10:42:17.044Z,10.01
2023-04-16T10:47:19.806Z,10.17
2023-04-16T10:52:26.118Z,10.38
2023-04-16T10:57:29.879Z,10.42
2023-04-16T11:02:32.896Z,10.30
2023-04-16T11:07:36.082Z,10.13
2023-04-16T11:12:41.354Z,9.98
2023-04-16T11:17:46.361Z,9.89
2023-04-16T11:22:50.490Z,9.85
2023-04-16T11:27:53.792Z,9.74
2023-04-16T11:32:56.594Z,9.61
2023-04-16T11:37:59.544Z,9.53
2023-04-16T11:43:13.884Z,9.52
2023-04-16T11:48:16.562Z,9.55
2023-04-16T11:53:19.423Z,9.68
2023-04-16T11:58:23.370Z,9.86
2023-04-16T12:03:46.214Z,10.03
2023-04-16T12:08:49.053Z,10.04
2023-04-16T12:14:09.858Z,9.88
2023-04-16T12:19:13.574Z,9.68
2023-04-16T12:24:20.849Z,9.59
2023-04-16T12:29:27.941Z,9.54
2023-04-16T12:34:49.247Z,9.42
2023-04-16T12:39:52.266Z,9.24
2023-04-16T12:44:54.772Z,9.15
2023-04-16T12:49:57.931Z,9.14
2023-04-16T12:55:02.835Z,9.19
2023-04-16T13:00:10.606Z,9.25
2023-04-16T13:05:16.545Z,9.40
2023-04-16T13:10:21.456Z,9.53
2023-04-16T13:15:24.847Z,9.68
2023-04-16T13:20:29.057Z,9.75
2023-04-16T13:25:31.798Z,9.81
2023-04-16T13:30:34.680Z,9.82
2023-04-16T13:35:37.355Z,9.80
2023-04-16T13:40:40.107Z,9.71
2023-04-16T13:45:42.698Z,9.77
2023-04-16T13:50:45.289Z,9.96
2023-04-16T13:55:49.565Z,10.17
2023-04-16T14:00:52.280Z,10.15
2023-04-16T14:05:54.981Z,10.03
2023-04-16T14:10:58.372Z,10.04
2023-04-16T14:16:02.956Z,10.29
2023-04-16T14:21:05.807Z,10.71
2023-04-16T14:26:08.476Z,10.96
2023-04-16T14:31:11.134Z,11.09
2023-04-16T14:36:14.189Z,11.23
2023-04-16T14:41:16.961Z,11.43
2023-04-16T14:46:19.664Z,11.63
2023-04-16T14:51:22.541Z,11.63
2023-04-16T14:56:25.821Z,11.48
2023-04-16T15:01:28.597Z,11.22
2023-04-16T15:06:32.294Z,11.03
2023-04-16T15:11:35.299Z,10.75
2023-04-16T15:16:37.975Z,10.41
2023-04-16T15:21:40.878Z,10.13
2023-04-16T15:26:43.777Z,9.94
2023-04-16T15:31:47.663Z,9.80
2023-04-16T15:36:50.623Z,9.70
2023-04-16T15:42:01.486Z,9.65
2023-04-16T15:47:06.437Z,9.59
2023-04-16T15:52:11.163Z,9.50
2023-04-16T15:57:13.696Z,9.43
2023-04-16T16:02:16.333Z,9.41
2023-04-16T16:07:19.966Z,9.41
2023-04-16T16:12:22.564Z,9.39
2023-04-16T16:17:25.585Z,9.38
2023-04-16T16:22:28.586Z,9.33
2023-04-16T16:27:31.144Z,9.23
2023-04-16T16:32:34.058Z,9.17
2023-04-16T16:37:37.670Z,9.13
2023-04-16T16:42:40.198Z,9.10
2023-04-16T16:47:42.783Z,9.06
2023-04-16T16:52:45.387Z,9.03
2023-04-16T16:57:47.932Z,9.01
2023-04-16T17:02:51.912Z,8.96
2023-04-16T17:07:54.718Z,8.93
2023-04-16T17:12:57.241Z,8.90
2023-04-16T17:17:59.834Z,8.85
2023-04-16T17:23:02.980Z,8.79
2023-04-16T17:28:05.548Z,8.73
2023-04-16T17:33:08.164Z,8.69
2023-04-16T17:38:11.697Z,8.62
2023-04-16T17:43:14.207Z,8.56
2023-04-16T17:48:16.789Z,8.50
2023-04-16T17:53:19.518Z,8.48
2023-04-16T17:58:22.156Z,8.47
2023-04-16T18:03:24.940Z,8.48
2023-04-16T18:08:28.775Z,8.48
2023-04-16T18:13:31.427Z,8.45
2023-04-16T18:18:34.231Z,8.42
2023-04-16T18:23:36.761Z,8.38
2023-04-16T18:28:39.411Z,8.37
2023-04-16T18:33:53.998Z,8.39
2023-04-16T18:39:01.615Z,8.42
2023-04-16T18:44:05.246Z,8.42
2023-04-16T18:49:07.825Z,8.39
2023-04-16T18:54:10.407Z,8.38
2023-04-16T18:59:13.330Z,8.38
2023-04-16T19:04:16.276Z,8.40
2023-04-16T19:09:19.934Z,8.42
2023-04-16T19:14:22.517Z,8.43
2023-04-16T19:19:25.068Z,8.43
2023-04-16T19:24:27.640Z,8.40
2023-04-16T19:29:34.083Z,8.35
2023-04-16T19:34:36.820Z,8.30
2023-04-16T19:39:39.388Z,8.28
2023-04-16T19:44:41.914Z,8.27
2023-04-16T19:49:44.444Z,8.28
2023-04-16T19:54:47.779Z,8.31
2023-04-16T19:59:50.488Z,8.29
2023-04-16T20:04:53.235Z,8.25
2023-04-16T20:09:55.864Z,8.23
2023-04-16T20:14:58.547Z,8.22
2023-04-16T20:20:07.199Z,8.19
2023-04-16T20:25:10.110Z,8.20
2023-04-16T20:30:13.931Z,8.25
2023-04-16T20:35:16.636Z,8.24
2023-04-16T20:40:19.919Z,8.21
2023-04-16T20:45:24.228Z,8.19
2023-04-16T20:50:26.788Z,8.16
2023-04-16T20:55:29.321Z,8.13
2023-04-16T21:00:31.849Z,8.10
2023-04-16T21:05:34.437Z,8.06
2023-04-16T21:10:36.940Z,8.03
2023-04-16T21:15:40.427Z,8.01
2023-04-16T21:20:43.090Z,8.02
2023-04-16T21:25:45.664Z,8.02
2023-04-16T21:30:52.253Z,8.01
2023-04-16T21:35:55.049Z,8.02
2023-04-16T21:40:57.649Z,8.02
2023-04-16T21:46:00.405Z,8.06
2023-04-16T21:51:06.617Z,8.11
2023-04-16T21:56:09.399Z,8.14
2023-04-16T22:01:12.251Z,8.19
2023-04-16T22:06:16.708Z,8.25
2023-04-16T22:11:19.349Z,8.27
2023-04-16T22:16:21.913Z,8.23
2023-04-16T22:21:24.893Z,8.12
2023-04-16T22:26:27.610Z,8.04
2023-04-16T22:31:30.200Z,8.01
2023-04-16T22:36:32.779Z,8.01
2023-04-16T22:41:36.806Z,8.01
2023-04-16T22:46:39.383Z,8.04
2023-04-16T22:51:42.486Z,8.06
2023-04-16T22:56:46.774Z,8.12
2023-04-16T23:01:49.686Z,8.16
2023-04-16T23:06:52.366Z,8.17
2023-04-16T23:11:54.861Z,8.17
2023-04-16T23:16:57.566Z,8.15
2023-04-16T23:22:00.066Z,8.12
2023-04-16T23:27:02.690Z,8.12
2023-04-16T23:32:05.660Z,8.15
2023-04-16T23:37:08.153Z,8.21
2023-04-16T23:42:11.263Z,8.20
2023-04-16T23:47:13.804Z,8.15
2023-04-16T23:52:16.334Z,8.11
2023-04-16T23:57:18.829Z,8.10
